Time;durP1;ratioP1;P1;durP2;ratioP2;P2;SDS_P1;SDS_P2;PMS_P1;PMS_P2;Temp;Humidity;BMP_temperature;BMP_pressure;BME280_temperature;BME280_humidity;BME280_pressure;Samples;Min_cycle;Max_cycle;Signal;HPM_P1;HPM_P2
2022/08/13 00:00:58;;;;;;;;;;;;;;;34.88;24.68;101053.81;4426813;32;20003;-67
2022/08/13 00:03:24;;;;;;;;;;;;;;;34.80;24.74;101065.56;4418118;32;19960;-68
2022/08/13 00:05:50;;;;;;;;;;;;;;;34.60;25.01;101057.97;4427205;32;19976;-65
2022/08/13 00:08:17;;;;;;;;;;;;;;;34.10;25.70;101051.41;4424969;32;20037;-67
2022/08/13 00:10:42;;;;;;;;;;;;;;;34.61;24.99;101064.59;4428087;32;20254;-68
2022/08/13 00:13:17;;;;;;;;;;;;;;;34.67;24.94;101060.06;4428138;32;20005;-66
2022/08/13 00:15:44;;;;;;;;;;;;;;;34.61;25.02;101059.53;4423303;32;19968;-65
2022/08/13 00:18:10;;;;;;;;;;;;;;;34.36;25.33;101052.97;4424420;32;20090;-67
2022/08/13 00:20:38;;;;;;;;;;;;;;;34.21;25.33;101056.00;4424633;32;19989;-68
2022/08/13 00:23:07;;;;;;;;;;;;;;;34.31;25.28;101053.97;4417095;32;19976;-66
2022/08/13 00:25:33;;;;;;;;;;;;;;;34.17;25.23;101052.72;4428204;32;19954;-67
2022/08/13 00:27:59;;;;;;;;;;;;;;;34.03;25.42;101051.47;4426565;32;20437;-65
2022/08/13 00:30:30;;;;;;;;;;;;;;;34.16;25.20;101042.41;4423748;32;19966;-66
2022/08/13 00:32:59;;;;;;;;;;;;;;;34.08;25.29;101044.63;4429399;32;19986;-65
2022/08/13 00:35:25;;;;;;;;;;;;;;;34.09;25.27;101041.13;4426546;32;19978;-66
2022/08/13 00:37:50;;;;;;;;;;;;;;;34.05;25.30;101037.81;4427523;32;19993;-65
2022/08/13 00:40:17;;;;;;;;;;;;;;;33.85;25.55;101038.94;4428389;32;19949;-65
2022/08/13 00:42:43;;;;;;;;;;;;;;;34.02;25.43;101038.25;4428118;32;19961;-66
2022/08/13 00:45:09;;;;;;;;;;;;;;;33.90;25.61;101040.84;4427601;32;19986;-65
2022/08/13 00:50:21;;;;;;;;;;;;;;;33.97;25.60;101033.41;4427497;32;19975;-65
2022/08/13 00:52:48;;;;;;;;;;;;;;;33.72;25.94;101039.25;4427998;32;20373;-67
2022/08/13 00:55:17;;;;;;;;;;;;;;;33.76;25.82;101035.88;4428356;32;19945;-66
2022/08/13 00:57:44;;;;;;;;;;;;;;;33.69;25.94;101030.88;4428437;32;19985;-67
2022/08/13 01:00:13;;;;;;;;;;;;;;;33.69;25.89;101033.78;4426476;32;19973;-65
2022/08/13 01:02:40;;;;;;;;;;;;;;;33.75;25.89;101020.50;4427974;32;20404;-66
2022/08/13 01:05:06;;;;;;;;;;;;;;;33.67;25.92;101024.84;4426598;32;19993;-65
2022/08/13 01:07:32;;;;;;;;;;;;;;;33.64;26.02;101018.06;4427747;32;19999;-65
2022/08/13 01:09:57;;;;;;;;;;;;;;;33.57;26.17;101029.78;4426132;32;19949;-65
2022/08/13 01:12:23;;;;;;;;;;;;;;;33.64;26.13;101034.78;4428058;32;19946;-65
2022/08/13 01:14:50;;;;;;;;;;;;;;;33.64;25.95;101026.03;4426267;32;19999;-68
2022/08/13 01:17:20;;;;;;;;;;;;;;;33.63;26.15;101033.25;4425598;32;19954;-66
2022/08/13 01:19:45;;;;;;;;;;;;;;;33.36;26.33;101030.09;4427092;32;19954;-64
2022/08/13 01:22:11;;;;;;;;;;;;;;;33.43;26.33;101026.38;4428431;32;20195;-65
2022/08/13 01:24:37;;;;;;;;;;;;;;;33.43;26.29;101037.25;4428256;32;20367;-66
2022/08/13 01:27:04;;;;;;;;;;;;;;;33.45;26.28;101035.31;4426152;32;20026;-68
2022/08/13 01:29:30;;;;;;;;;;;;;;;33.30;26.36;101020.78;4424201;32;19984;-65
2022/08/13 01:31:56;;;;;;;;;;;;;;;33.36;26.43;101026.38;4426930;32;20789;-65
2022/08/13 01:34:25;;;;;;;;;;;;;;;33.28;26.54;101037.34;4427064;32;20288;-66
2022/08/13 01:36:52;;;;;;;;;;;;;;;33.26;26.46;101029.19;4426923;32;19984;-64
2022/08/13 01:39:18;;;;;;;;;;;;;;;33.17;26.64;101029.03;4427763;32;20030;-65
2022/08/13 01:41:44;;;;;;;;;;;;;;;33.25;26.52;101023.94;4428978;32;19949;-68
2022/08/13 01:44:10;;;;;;;;;;;;;;;33.00;26.82;101023.84;4426902;32;19964;-66
2022/08/13 01:52:10;;;;;;;;;;;;;;;32.86;26.84;101027.59;4427521;32;19971;-65
2022/08/13 01:54:36;;;;;;;;;;;;;;;32.92;26.96;101023.13;4427874;32;19949;-65
2022/08/13 01:57:03;;;;;;;;;;;;;;;32.95;26.89;101027.78;4426877;32;20282;-65
2022/08/13 01:59:29;;;;;;;;;;;;;;;32.43;27.50;101028.66;4424657;32;19992;-64
2022/08/13 02:01:57;;;;;;;;;;;;;;;32.74;27.20;101023.53;4428115;32;19949;-68
2022/08/13 02:04:22;;;;;;;;;;;;;;;32.65;27.27;101022.75;4427724;32;20362;-64
2022/08/13 02:06:48;;;;;;;;;;;;;;;32.50;27.48;101019.91;4425957;32;19964;-67
2022/08/13 02:09:14;;;;;;;;;;;;;;;32.60;27.28;101020.06;4426257;32;20204;-65
2022/08/13 02:11:41;;;;;;;;;;;;;;;32.56;27.37;101022.59;4426220;32;19980;-67
2022/08/13 02:14:07;;;;;;;;;;;;;;;32.52;27.53;101017.16;4427105;32;19988;-66
2022/08/13 02:16:35;;;;;;;;;;;;;;;32.64;27.31;101023.34;4427664;32;20439;-68
2022/08/13 02:19:02;;;;;;;;;;;;;;;32.64;27.14;101017.53;4427351;32;19957;-66
2022/08/13 02:21:31;;;;;;;;;;;;;;;32.55;27.30;101029.81;4426357;32;20053;-67
2022/08/13 02:23:58;;;;;;;;;;;;;;;32.47;27.32;101020.28;4424088;32;19994;-64
2022/08/13 02:26:24;;;;;;;;;;;;;;;32.36;27.56;101023.59;4427889;32;19997;-66
2022/08/13 02:28:51;;;;;;;;;;;;;;;32.41;27.43;101020.50;4424576;32;20107;-67
2022/08/13 02:31:18;;;;;;;;;;;;;;;32.40;27.44;101024.00;4425388;32;20574;-65
2022/08/13 02:33:43;;;;;;;;;;;;;;;32.31;27.48;101012.91;4428967;32;20478;-67
2022/08/13 02:36:10;;;;;;;;;;;;;;;32.35;27.58;101013.31;4428840;32;19989;-64
2022/08/13 02:38:37;;;;;;;;;;;;;;;32.27;27.60;101016.22;4426002;32;19996;-67
2022/08/13 02:43:50;;;;;;;;;;;;;;;32.20;27.67;101013.31;4427598;32;20299;-64
2022/08/13 02:46:16;;;;;;;;;;;;;;;32.29;27.53;101019.31;4426666;32;19953;-67
2022/08/13 02:48:42;;;;;;;;;;;;;;;32.28;27.54;101011.94;4427231;32;19985;-67
2022/08/13 02:51:11;;;;;;;;;;;;;;;32.07;27.78;101020.13;4428286;32;19996;-64
2022/08/13 02:53:38;;;;;;;;;;;;;;;32.19;27.66;101011.75;4426007;32;19954;-65
2022/08/13 02:56:08;;;;;;;;;;;;;;;32.18;27.66;101010.97;4425352;32;19996;-65
2022/08/13 02:58:34;;;;;;;;;;;;;;;32.22;27.50;101017.22;4426810;32;20245;-65
2022/08/13 03:01:02;;;;;;;;;;;;;;;32.18;27.67;101010.97;4424552;32;20412;-65
2022/08/13 03:03:28;;;;;;;;;;;;;;;32.21;27.58;101015.63;4426863;32;20391;-65
2022/08/13 03:05:54;;;;;;;;;;;;;;;32.13;27.69;101014.09;4426932;32;19972;-66
2022/08/13 03:08:19;;;;;;;;;;;;;;;32.11;27.67;101011.00;4425486;32;19993;-67
2022/08/13 03:10:45;;;;;;;;;;;;;;;31.92;27.98;101025.94;4427164;32;20169;-67
2022/08/13 03:13:16;;;;;;;;;;;;;;;32.04;27.73;101008.88;4427908;32;20113;-66
2022/08/13 03:15:42;;;;;;;;;;;;;;;32.08;27.68;101012.94;4428802;32;20000;-66
2022/08/13 03:18:09;;;;;;;;;;;;;;;32.03;27.69;101010.22;4414237;32;19958;-64
2022/08/13 03:20:35;;;;;;;;;;;;;;;31.91;27.93;101009.81;4427010;32;19957;-65
2022/08/13 03:23:01;;;;;;;;;;;;;;;31.96;27.95;101005.16;4426481;32;19949;-64
2022/08/13 03:25:29;;;;;;;;;;;;;;;31.85;27.94;101003.44;4427440;32;20004;-65
2022/08/13 03:27:55;;;;;;;;;;;;;;;31.83;27.81;101009.06;4428174;32;19960;-67
2022/08/13 03:30:21;;;;;;;;;;;;;;;31.45;28.47;100996.59;4428973;32;19997;-64
2022/08/13 03:32:48;;;;;;;;;;;;;;;31.84;27.95;100998.97;4429719;32;19959;-65
2022/08/13 03:35:15;;;;;;;;;;;;;;;31.81;28.03;100996.44;4430388;32;19977;-66
2022/08/13 03:37:42;;;;;;;;;;;;;;;31.79;27.96;100997.00;4429305;32;19997;-67
2022/08/13 03:40:08;;;;;;;;;;;;;;;31.86;27.96;100996.25;4427632;32;19968;-67
2022/08/13 03:42:35;;;;;;;;;;;;;;;31.58;28.28;100998.53;4431771;32;20103;-66
2022/08/13 03:45:02;;;;;;;;;;;;;;;31.81;28.01;100991.41;4428242;32;19993;-65
2022/08/13 03:47:28;;;;;;;;;;;;;;;31.83;27.98;100997.41;4426189;32;20370;-64
2022/08/13 03:49:54;;;;;;;;;;;;;;;31.62;28.17;100993.09;4427324;32;19953;-66
2022/08/13 03:52:20;;;;;;;;;;;;;;;31.65;28.08;100984.00;4431694;32;20032;-66
2022/08/13 03:54:45;;;;;;;;;;;;;;;31.73;27.99;100981.09;4431590;32;20363;-68
2022/08/13 03:57:12;;;;;;;;;;;;;;;31.74;28.10;100986.31;4430343;32;20235;-65
2022/08/13 03:59:38;;;;;;;;;;;;;;;31.66;28.14;100988.44;4427951;32;20007;-67
2022/08/13 04:02:03;;;;;;;;;;;;;;;31.63;28.25;100983.03;4427260;32;20006;-65
2022/08/13 04:04:29;;;;;;;;;;;;;;;31.69;28.05;100989.44;4431292;32;19953;-65
2022/08/13 04:06:54;;;;;;;;;;;;;;;31.68;27.99;100988.66;4430082;32;19985;-66
2022/08/13 04:09:20;;;;;;;;;;;;;;;31.49;28.34;100991.16;4427630;32;20028;-65
2022/08/13 04:11:46;;;;;;;;;;;;;;;31.70;28.12;100991.75;4429830;32;19997;-65
2022/08/13 04:14:12;;;;;;;;;;;;;;;31.66;28.21;100993.50;4429897;32;20357;-65
2022/08/13 04:16:40;;;;;;;;;;;;;;;31.51;28.22;100987.66;4430951;32;19957;-66
2022/08/13 04:19:06;;;;;;;;;;;;;;;31.24;28.58;100977.69;4427193;32;20349;-64
2022/08/13 04:21:33;;;;;;;;;;;;;;;31.40;28.32;100988.81;4429050;32;20000;-65
2022/08/13 04:23:58;;;;;;;;;;;;;;;31.35;28.43;100980.28;4429391;32;19981;-66
2022/08/13 04:26:25;;;;;;;;;;;;;;;31.25;28.74;100982.94;4428685;32;19983;-65
2022/08/13 04:28:53;;;;;;;;;;;;;;;31.48;28.38;100983.00;4427315;32;20082;-65
2022/08/13 04:31:19;;;;;;;;;;;;;;;31.45;28.42;100978.34;4428428;32;19968;-65
2022/08/13 04:33:45;;;;;;;;;;;;;;;31.62;28.27;100978.53;4429043;32;20554;-67
2022/08/13 04:36:11;;;;;;;;;;;;;;;31.76;28.21;100979.91;4429816;32;19997;-67
2022/08/13 04:38:38;;;;;;;;;;;;;;;31.71;28.02;100977.97;4427990;32;20295;-64
2022/08/13 04:41:04;;;;;;;;;;;;;;;31.60;27.95;100978.38;4429354;32;19957;-65
2022/08/13 04:43:29;;;;;;;;;;;;;;;31.59;28.07;100985.53;4431541;32;19971;-65
2022/08/13 04:45:58;;;;;;;;;;;;;;;31.70;28.20;100976.44;4428767;32;19985;-67
2022/08/13 04:48:25;;;;;;;;;;;;;;;31.84;27.87;100975.69;4416497;32;19949;-67
2022/08/13 04:50:52;;;;;;;;;;;;;;;31.73;28.14;100976.06;4428394;32;20010;-64
2022/08/13 04:53:27;;;;;;;;;;;;;;;31.83;28.06;100974.12;4426164;32;19996;-67
2022/08/13 04:55:52;;;;;;;;;;;;;;;31.82;28.05;100960.16;4429370;32;20793;-66
2022/08/13 04:58:18;;;;;;;;;;;;;;;32.00;27.75;100967.72;4428104;32;19957;-65
2022/08/13 05:00:45;;;;;;;;;;;;;;;32.00;27.77;100974.31;4429421;32;19966;-66
2022/08/13 05:03:12;;;;;;;;;;;;;;;32.05;27.90;100978.38;4430022;32;20436;-65
2022/08/13 05:05:38;;;;;;;;;;;;;;;32.12;27.59;100969.63;4426828;32;20343;-68
2022/08/13 05:08:05;;;;;;;;;;;;;;;32.32;27.54;100971.56;4428853;32;20033;-66
2022/08/13 05:10:31;;;;;;;;;;;;;;;32.40;27.39;100974.47;4427199;32;20058;-65
2022/08/13 05:12:57;;;;;;;;;;;;;;;32.35;27.35;100966.72;4428002;32;20366;-65
2022/08/13 05:15:23;;;;;;;;;;;;;;;32.20;27.41;100966.72;4428865;32;19945;-64
2022/08/13 05:17:49;;;;;;;;;;;;;;;32.21;27.48;100966.13;4429396;32;20016;-64
2022/08/13 05:20:15;;;;;;;;;;;;;;;32.36;27.54;100979.91;4427264;32;19957;-67
2022/08/13 05:22:42;;;;;;;;;;;;;;;32.36;27.22;100971.94;4428338;32;20022;-65
2022/08/13 05:25:10;;;;;;;;;;;;;;;32.31;27.50;100969.97;4429096;32;19961;-65
2022/08/13 05:27:35;;;;;;;;;;;;;;;32.50;27.02;100972.50;4430528;32;19987;-65
2022/08/13 05:30:02;;;;;;;;;;;;;;;32.60;27.20;100976.34;4424781;32;20001;-64
2022/08/13 05:32:27;;;;;;;;;;;;;;;32.52;27.36;100981.44;4429672;32;20449;-68
2022/08/13 05:34:53;;;;;;;;;;;;;;;32.56;27.25;100988.44;4427723;32;19953;-67
2022/08/13 05:37:19;;;;;;;;;;;;;;;32.41;27.54;100985.56;4427585;32;20469;-67
2022/08/13 05:39:45;;;;;;;;;;;;;;;32.71;26.99;100992.63;4426033;32;20026;-68
2022/08/13 05:42:11;;;;;;;;;;;;;;;32.87;27.05;100982.50;4428126;32;20355;-64
2022/08/13 05:44:37;;;;;;;;;;;;;;;32.55;27.51;100981.03;4427309;32;19967;-67
2022/08/13 05:47:04;;;;;;;;;;;;;;;32.54;27.32;100978.69;4427679;32;19957;-65
2022/08/13 05:49:29;;;;;;;;;;;;;;;32.42;27.48;100990.00;4427448;32;19969;-66
2022/08/13 05:51:57;;;;;;;;;;;;;;;32.60;27.43;100979.25;4427143;32;20026;-64
2022/08/13 05:54:23;;;;;;;;;;;;;;;32.47;27.56;100980.28;4427418;32;19949;-66
2022/08/13 05:56:49;;;;;;;;;;;;;;;32.50;27.60;100981.25;4429899;32;20064;-69
2022/08/13 06:04:46;;;;;;;;;;;;;;;32.70;27.25;100974.38;4425650;32;19954;-65
2022/08/13 06:07:17;;;;;;;;;;;;;;;33.02;26.96;100970.75;4426752;32;19996;-66
2022/08/13 06:09:43;;;;;;;;;;;;;;;33.01;27.25;100972.13;4426962;32;20015;-63
2022/08/13 06:12:09;;;;;;;;;;;;;;;33.28;26.69;100962.25;4429407;32;19972;-67
2022/08/13 06:14:35;;;;;;;;;;;;;;;33.38;27.01;100965.34;4427793;32;19997;-67
2022/08/13 06:17:02;;;;;;;;;;;;;;;33.45;26.86;100958.66;4427207;32;19964;-67
2022/08/13 06:19:29;;;;;;;;;;;;;;;33.66;26.57;100964.94;4426115;32;20081;-67
2022/08/13 06:22:00;;;;;;;;;;;;;;;33.75;26.58;100964.28;4426189;32;19954;-67
2022/08/13 06:24:27;;;;;;;;;;;;;;;33.87;26.66;100963.19;4427391;32;19957;-66
2022/08/13 06:26:52;;;;;;;;;;;;;;;34.08;26.61;100968.69;4427180;32;19993;-64
2022/08/13 06:29:18;;;;;;;;;;;;;;;34.02;26.75;100963.06;4425591;32;20033;-67
2022/08/13 06:31:46;;;;;;;;;;;;;;;34.24;26.76;100962.06;4425916;32;20003;-66
2022/08/13 06:34:12;;;;;;;;;;;;;;;34.25;26.57;100968.69;4429169;32;20009;-67
2022/08/13 06:36:37;;;;;;;;;;;;;;;34.23;26.54;100966.38;4426861;32;20378;-68
2022/08/13 06:39:04;;;;;;;;;;;;;;;34.51;26.53;100962.19;4425463;32;20442;-65
2022/08/13 06:41:31;;;;;;;;;;;;;;;34.15;27.01;100967.81;4426150;32;19945;-66
2022/08/13 06:43:57;;;;;;;;;;;;;;;34.58;26.66;100960.56;4424259;32;19980;-67
2022/08/13 06:46:24;;;;;;;;;;;;;;;34.48;26.77;100963.38;4426004;32;19956;-65
2022/08/13 06:48:50;;;;;;;;;;;;;;;34.35;27.11;100960.78;4427934;32;20049;-65
2022/08/13 06:51:17;;;;;;;;;;;;;;;34.41;26.79;100964.25;4425940;32;20414;-67
2022/08/13 06:53:43;;;;;;;;;;;;;;;34.50;26.96;100962.78;4425991;32;19961;-66
2022/08/13 06:56:14;;;;;;;;;;;;;;;34.12;27.56;100969.03;4427173;32;20496;-67
2022/08/13 06:58:42;;;;;;;;;;;;;;;33.41;28.72;100953.22;4426684;32;19965;-66
2022/08/13 07:01:09;;;;;;;;;;;;;;;33.44;28.64;100960.03;4426887;32;20324;-65
2022/08/13 07:03:35;;;;;;;;;;;;;;;33.85;28.13;100965.94;4427869;32;19945;-66
2022/08/13 07:06:01;;;;;;;;;;;;;;;34.20;27.64;100955.87;4429333;32;19981;-65
2022/08/13 07:08:27;;;;;;;;;;;;;;;34.34;27.47;100951.25;4431247;32;20005;-67
2022/08/13 07:11:26;;;;;;;;;;;;;;;34.18;27.75;100955.69;4431456;32;20031;-68
2022/08/13 07:13:41;;;;;;;;;;;;;;;34.24;27.99;100950.38;4429956;32;20020;-67
2022/08/13 07:16:08;;;;;;;;;;;;;;;34.76;27.45;100948.25;4428275;32;19996;-68
2022/08/13 07:18:34;;;;;;;;;;;;;;;34.97;27.14;100939.78;4425996;32;20375;-68
2022/08/13 07:21:02;;;;;;;;;;;;;;;35.01;27.13;100943.06;4429268;32;19953;-68
2022/08/13 07:23:27;;;;;;;;;;;;;;;35.20;27.05;100951.97;4429828;32;20001;-67
2022/08/13 07:25:55;;;;;;;;;;;;;;;35.02;27.20;100949.69;4430471;32;20011;-65
2022/08/13 07:28:23;;;;;;;;;;;;;;;35.29;27.16;100942.47;4428444;32;19968;-67
2022/08/13 07:30:50;;;;;;;;;;;;;;;35.33;26.91;100951.59;4429892;32;20390;-66
2022/08/13 07:33:16;;;;;;;;;;;;;;;35.20;27.29;100948.25;4430036;32;20000;-68
2022/08/13 07:35:42;;;;;;;;;;;;;;;35.45;27.07;100940.88;4429805;32;20104;-67
2022/08/13 07:38:07;;;;;;;;;;;;;;;35.02;27.53;100947.53;4429548;32;20048;-66
2022/08/13 07:40:34;;;;;;;;;;;;;;;35.54;26.95;100954.00;4429864;32;19950;-66
2022/08/13 07:43:04;;;;;;;;;;;;;;;35.76;26.71;100950.69;4431213;32;19961;-67
2022/08/13 07:45:30;;;;;;;;;;;;;;;35.58;26.73;100952.16;4429424;32;20616;-67
2022/08/13 07:47:56;;;;;;;;;;;;;;;35.01;27.68;100946.00;4427621;32;19973;-68
2022/08/13 07:50:22;;;;;;;;;;;;;;;35.64;26.77;100948.94;4428184;32;20002;-66
2022/08/13 07:52:55;;;;;;;;;;;;;;;35.66;26.92;100952.81;4428559;32;19979;-68
2022/08/13 07:55:22;;;;;;;;;;;;;;;35.89;26.63;100955.41;4428074;32;19994;-68
2022/08/13 07:57:48;;;;;;;;;;;;;;;35.58;26.92;100954.31;4428915;32;19996;-66
2022/08/13 08:00:19;;;;;;;;;;;;;;;35.47;27.04;100955.69;4429997;32;19957;-68
2022/08/13 08:02:45;;;;;;;;;;;;;;;36.30;25.98;100954.28;4429220;32;19953;-66
2022/08/13 08:05:13;;;;;;;;;;;;;;;36.46;26.01;100957.66;4426691;32;20582;-66
2022/08/13 08:07:39;;;;;;;;;;;;;;;36.49;26.20;100950.56;4427030;32;19960;-65
2022/08/13 08:10:06;;;;;;;;;;;;;;;36.52;25.96;100972.78;4427566;32;20104;-66
2022/08/13 08:12:35;;;;;;;;;;;;;;;36.35;26.16;100961.22;4429561;32;19993;-68
2022/08/13 08:15:05;;;;;;;;;;;;;;;36.52;26.07;100958.13;4426564;32;20007;-66
2022/08/13 08:17:31;;;;;;;;;;;;;;;36.78;25.68;100957.25;4426810;32;19957;-67
2022/08/13 08:19:57;;;;;;;;;;;;;;;36.96;25.45;100949.81;4427016;32;20105;-66
2022/08/13 08:22:23;;;;;;;;;;;;;;;36.64;25.78;100951.03;4425088;32;20013;-65
2022/08/13 08:24:50;;;;;;;;;;;;;;;37.11;25.16;100950.22;4415272;32;19971;-66
2022/08/13 08:27:16;;;;;;;;;;;;;;;36.79;25.36;100952.91;4428428;32;19953;-68
2022/08/13 08:29:43;;;;;;;;;;;;;;;37.19;24.81;100958.87;4426308;32;20012;-66
2022/08/13 08:32:10;;;;;;;;;;;;;;;37.33;24.64;100954.06;4426381;32;20309;-67
2022/08/13 08:34:37;;;;;;;;;;;;;;;37.06;25.18;100948.38;4425393;32;20001;-68
2022/08/13 08:37:03;;;;;;;;;;;;;;;37.44;24.60;100950.47;4426233;32;19984;-66
2022/08/13 08:42:48;;;;;;;;;;;;;;;37.54;24.14;100954.91;4430315;32;20001;-65
2022/08/13 08:45:03;;;;;;;;;;;;;;;37.21;24.78;100953.19;4426618;32;19945;-66
2022/08/13 08:47:30;;;;;;;;;;;;;;;37.71;23.93;100959.81;4425034;32;19964;-68
2022/08/13 08:49:57;;;;;;;;;;;;;;;37.20;24.53;100948.69;4425358;32;20004;-68
2022/08/13 08:53:19;;;;;;;;;;;;;;;37.45;24.37;100952.00;4428085;32;19993;-67
2022/08/13 08:55:10;;;;;;;;;;;;;;;38.84;22.68;100954.56;4428092;32;20284;-67
2022/08/13 08:57:36;;;;;;;;;;;;;;;39.53;21.76;100951.84;4427108;32;19993;-66
2022/08/13 09:00:05;;;;;;;;;;;;;;;39.78;21.06;100962.97;4423221;32;19990;-68
2022/08/13 09:02:33;;;;;;;;;;;;;;;40.18;20.55;100964.78;4425926;32;19975;-66
2022/08/13 09:05:01;;;;;;;;;;;;;;;40.16;20.70;100961.69;4428086;32;20001;-67
2022/08/13 09:07:27;;;;;;;;;;;;;;;40.92;19.91;100970.09;4425788;32;20594;-67
2022/08/13 09:09:55;;;;;;;;;;;;;;;41.20;19.39;100968.06;4425104;32;19965;-67
2022/08/13 09:12:25;;;;;;;;;;;;;;;41.66;18.93;100966.97;4427815;32;19997;-68
2022/08/13 09:14:50;;;;;;;;;;;;;;;41.80;18.79;100970.72;4429491;32;19961;-66
2022/08/13 09:17:18;;;;;;;;;;;;;;;41.95;18.51;100970.09;4426119;32;19987;-69
2022/08/13 09:19:44;;;;;;;;;;;;;;;42.08;18.27;100966.38;4426016;32;20078;-68
2022/08/13 09:22:11;;;;;;;;;;;;;;;42.54;17.65;100963.69;4426325;32;20006;-68
2022/08/13 09:24:39;;;;;;;;;;;;;;;42.86;17.16;100962.44;4428093;32;20726;-68
2022/08/13 09:27:06;;;;;;;;;;;;;;;42.81;17.52;100963.66;4425726;32;20387;-67
2022/08/13 09:29:32;;;;;;;;;;;;;;;43.22;17.01;100956.81;4426553;32;20002;-66
2022/08/13 09:31:58;;;;;;;;;;;;;;;42.92;17.08;100956.78;4427894;32;19957;-65
2022/08/13 09:34:25;;;;;;;;;;;;;;;42.25;17.80;100954.75;4428520;32;19958;-66
2022/08/13 09:36:56;;;;;;;;;;;;;;;42.28;17.81;100953.44;4426447;32;19953;-65
2022/08/13 09:39:29;;;;;;;;;;;;;;;42.61;17.55;100947.78;4427943;32;19993;-66
2022/08/13 09:41:56;;;;;;;;;;;;;;;43.05;17.04;100953.03;4426373;32;20004;-66
2022/08/13 09:44:26;;;;;;;;;;;;;;;42.24;17.60;100955.41;4427700;32;19991;-67
2022/08/13 09:46:52;;;;;;;;;;;;;;;43.20;16.73;100948.59;4425526;32;20019;-68
2022/08/13 09:49:20;;;;;;;;;;;;;;;43.23;16.60;100958.34;4426472;32;19971;-66
2022/08/13 09:51:45;;;;;;;;;;;;;;;43.57;16.30;100945.19;4428330;32;20423;-66
2022/08/13 09:54:11;;;;;;;;;;;;;;;42.87;16.14;100942.47;4425592;32;20021;-66
2022/08/13 09:56:37;;;;;;;;;;;;;;;43.82;15.49;100944.88;4425925;32;20040;-69
2022/08/13 09:59:04;;;;;;;;;;;;;;;43.41;15.43;100944.41;4425826;32;20019;-68
2022/08/13 10:01:30;;;;;;;;;;;;;;;43.80;15.32;100935.91;4427780;32;19985;-69
2022/08/13 10:03:55;;;;;;;;;;;;;;;43.81;15.32;100934.47;4426631;32;20434;-66
2022/08/13 10:06:21;;;;;;;;;;;;;;;44.53;14.90;100935.56;4428462;32;20347;-66
2022/08/13 10:08:47;;;;;;;;;;;;;;;44.55;14.97;100934.91;4427221;32;19998;-66
2022/08/13 10:11:14;;;;;;;;;;;;;;;44.42;15.11;100933.59;4425378;32;20346;-66
2022/08/13 10:13:40;;;;;;;;;;;;;;;44.49;15.04;100931.66;4417618;32;20016;-69
2022/08/13 10:16:05;;;;;;;;;;;;;;;44.33;14.95;100925.81;4426036;32;19954;-67
2022/08/13 10:18:31;;;;;;;;;;;;;;;44.66;14.83;100930.97;4427607;32;19971;-66
2022/08/13 10:20:57;;;;;;;;;;;;;;;44.81;14.79;100913.03;4426201;32;21026;-66
2022/08/13 10:23:22;;;;;;;;;;;;;;;45.09;14.51;100919.41;4426448;32;19978;-67
2022/08/13 10:25:52;;;;;;;;;;;;;;;45.45;14.11;100920.12;4426148;32;20019;-68
2022/08/13 10:28:19;;;;;;;;;;;;;;;45.21;14.15;100913.94;4415035;32;19997;-68
2022/08/13 10:30:46;;;;;;;;;;;;;;;45.64;13.90;100920.12;4424035;32;19962;-66
2022/08/13 10:33:12;;;;;;;;;;;;;;;45.93;13.35;100913.06;4425344;32;20320;-66
2022/08/13 10:35:39;;;;;;;;;;;;;;;46.49;12.78;100912.94;4427274;32;19976;-67
2022/08/13 10:38:08;;;;;;;;;;;;;;;47.06;12.56;100911.84;4429871;32;19965;-69
2022/08/13 10:40:34;;;;;;;;;;;;;;;47.27;12.45;100914.06;4427934;32;20015;-67
2022/08/13 10:42:59;;;;;;;;;;;;;;;47.41;12.21;100923.41;4430469;32;20335;-69
2022/08/13 10:45:27;;;;;;;;;;;;;;;47.71;11.85;100918.41;4429511;32;19958;-67
2022/08/13 10:47:54;;;;;;;;;;;;;;;48.06;11.58;100917.94;4427698;32;19953;-66
2022/08/13 10:50:21;;;;;;;;;;;;;;;47.55;12.20;100911.97;4428176;32;19961;-67
2022/08/13 10:52:47;;;;;;;;;;;;;;;48.01;12.08;100911.13;4429042;32;19993;-65
2022/08/13 10:55:14;;;;;;;;;;;;;;;48.20;11.73;100904.19;4428693;32;19980;-65
2022/08/13 10:57:41;;;;;;;;;;;;;;;47.93;12.02;100907.13;4426939;32;19957;-68
2022/08/13 11:00:08;;;;;;;;;;;;;;;48.40;11.77;100909.97;4428479;32;20004;-67
2022/08/13 11:02:33;;;;;;;;;;;;;;;48.56;11.63;100913.38;4427455;32;20001;-68
2022/08/13 11:05:00;;;;;;;;;;;;;;;48.87;11.39;100906.72;4428481;32;20000;-65
2022/08/13 11:07:26;;;;;;;;;;;;;;;48.85;11.38;100891.72;4428749;32;19960;-68
2022/08/13 11:09:51;;;;;;;;;;;;;;;47.87;11.96;100889.03;4428532;32;19953;-66
2022/08/13 11:12:18;;;;;;;;;;;;;;;48.34;11.66;100894.13;4430170;32;20007;-66
2022/08/13 11:14:46;;;;;;;;;;;;;;;49.33;11.17;100880.19;4430456;32;20373;-66
2022/08/13 11:17:13;;;;;;;;;;;;;;;49.79;10.89;100884.19;4428405;32;19967;-66
2022/08/13 11:19:44;;;;;;;;;;;;;;;50.10;10.54;100889.31;4427418;32;20000;-67
2022/08/13 11:22:10;;;;;;;;;;;;;;;50.09;10.63;100875.06;4426440;32;20715;-67
2022/08/13 11:24:35;;;;;;;;;;;;;;;50.30;10.58;100877.69;4428632;32;19988;-69
2022/08/13 11:27:01;;;;;;;;;;;;;;;50.39;10.69;100873.38;4426484;32;19954;-68
2022/08/13 11:29:26;;;;;;;;;;;;;;;50.85;10.41;100873.44;4424671;32;20405;-69
2022/08/13 11:31:52;;;;;;;;;;;;;;;50.96;10.27;100869.84;4428363;32;20019;-66
2022/08/13 11:34:18;;;;;;;;;;;;;;;49.57;11.19;100857.50;4424652;32;19980;-66
2022/08/13 11:36:44;;;;;;;;;;;;;;;50.93;10.42;100861.56;4427043;32;20185;-67
2022/08/13 11:39:11;;;;;;;;;;;;;;;50.79;10.64;100859.09;4425647;32;20016;-68
2022/08/13 11:41:36;;;;;;;;;;;;;;;51.07;10.53;100855.81;4429836;32;20334;-66
2022/08/13 11:44:02;;;;;;;;;;;;;;;50.98;10.64;100854.91;4428560;32;20030;-68
2022/08/13 11:46:27;;;;;;;;;;;;;;;50.51;11.05;100858.62;4429897;32;19980;-68
2022/08/13 11:48:53;;;;;;;;;;;;;;;50.66;10.88;100863.38;4427266;32;20004;-68
2022/08/13 11:51:18;;;;;;;;;;;;;;;50.17;11.14;100845.28;4427339;32;19972;-66
2022/08/13 11:53:44;;;;;;;;;;;;;;;50.76;10.77;100845.56;4429365;32;20008;-65
2022/08/13 11:56:09;;;;;;;;;;;;;;;51.30;10.57;100848.62;4425274;32;20288;-66
2022/08/13 11:58:35;;;;;;;;;;;;;;;49.50;11.73;100834.19;4428327;32;20029;-67
2022/08/13 12:01:02;;;;;;;;;;;;;;;50.74;11.01;100839.56;4428014;32;20019;-67
2022/08/13 12:03:27;;;;;;;;;;;;;;;50.39;11.29;100831.44;4428215;32;19967;-65
2022/08/13 12:05:53;;;;;;;;;;;;;;;49.94;11.52;100835.09;4426451;32;19961;-68
2022/08/13 12:08:21;;;;;;;;;;;;;;;50.52;11.16;100848.16;4427417;32;19970;-67
2022/08/13 12:10:47;;;;;;;;;;;;;;;51.20;10.74;100837.25;4427569;32;20763;-67
2022/08/13 12:13:13;;;;;;;;;;;;;;;51.69;10.31;100835.66;4427516;32;20270;-66
2022/08/13 12:15:42;;;;;;;;;;;;;;;51.59;10.46;100826.50;4429262;32;20062;-67
2022/08/13 12:18:11;;;;;;;;;;;;;;;52.25;10.12;100824.22;4412804;32;20005;-67
2022/08/13 12:20:36;;;;;;;;;;;;;;;50.51;11.16;100815.94;4426375;32;20430;-66
2022/08/13 12:23:03;;;;;;;;;;;;;;;51.55;10.58;100818.22;4426239;32;20000;-66
2022/08/13 12:25:30;;;;;;;;;;;;;;;52.18;10.15;100821.91;4425519;32;20354;-65
2022/08/13 12:28:12;;;;;;;;;;;;;;;50.36;11.09;100808.94;4429447;32;19949;-65
2022/08/13 12:30:39;;;;;;;;;;;;;;;50.98;10.68;100797.94;4425765;32;20004;-66
2022/08/13 12:33:05;;;;;;;;;;;;;;;51.27;10.50;100805.84;4428266;32;19996;-66
2022/08/13 12:35:31;;;;;;;;;;;;;;;51.38;10.09;100800.75;4427561;32;19949;-68
2022/08/13 12:37:56;;;;;;;;;;;;;;;50.91;10.27;100792.59;4429292;32;20029;-68
2022/08/13 12:40:22;;;;;;;;;;;;;;;52.05;9.75;100793.25;4426901;32;20001;-69
2022/08/13 12:42:47;;;;;;;;;;;;;;;52.21;9.34;100796.41;4426911;32;19978;-67
2022/08/13 12:45:14;;;;;;;;;;;;;;;52.76;8.89;100790.09;4428195;32;19969;-67
2022/08/13 12:47:40;;;;;;;;;;;;;;;52.77;8.73;100788.59;4427120;32;19999;-67
2022/08/13 12:50:06;;;;;;;;;;;;;;;52.82;8.62;100778.09;4427525;32;20454;-65
2022/08/13 12:52:31;;;;;;;;;;;;;;;52.80;8.73;100774.31;4430285;32;19953;-67
2022/08/13 12:54:57;;;;;;;;;;;;;;;52.88;8.81;100780.41;4428054;32;19992;-66